sensor_id;sensor_type;location;lat;lon;timestamp;P1;durP1;ratioP1;P2;durP2;ratioP2
27265;SDS011;14766;51.380;13.762;2022-07-17T00:01:22;1.80;;;1.27;;
27265;SDS011;14766;51.380;13.762;2022-07-17T00:03:49;2.47;;;1.52;;
27265;SDS011;14766;51.380;13.762;2022-07-17T00:06:17;2.28;;;1.30;;
27265;SDS011;14766;51.380;13.762;2022-07-17T00:08:45;2.22;;;1.30;;
27265;SDS011;14766;51.380;13.762;2022-07-17T00:11:13;1.65;;;1.40;;
27265;SDS011;14766;51.380;13.762;2022-07-17T00:13:40;2.60;;;1.25;;
27265;SDS011;14766;51.380;13.762;2022-07-17T00:16:07;2.13;;;1.30;;
27265;SDS011;14766;51.380;13.762;2022-07-17T00:18:34;1.38;;;1.20;;
27265;SDS011;14766;51.380;13.762;2022-07-17T00:21:02;2.40;;;1.13;;
27265;SDS011;14766;51.380;13.762;2022-07-17T00:23:29;1.83;;;1.10;;
27265;SDS011;14766;51.380;13.762;2022-07-17T00:25:57;2.35;;;1.30;;
27265;SDS011;14766;51.380;13.762;2022-07-17T00:28:25;2.10;;;1.20;;
27265;SDS011;14766;51.380;13.762;2022-07-17T00:30:53;2.25;;;1.30;;
27265;SDS011;14766;51.380;13.762;2022-07-17T00:33:20;2.40;;;1.40;;
27265;SDS011;14766;51.380;13.762;2022-07-17T00:35:47;2.60;;;1.40;;
27265;SDS011;14766;51.380;13.762;2022-07-17T00:38:14;2.75;;;1.40;;
27265;SDS011;14766;51.380;13.762;2022-07-17T00:40:44;2.63;;;1.30;;
27265;SDS011;14766;51.380;13.762;2022-07-17T00:43:12;2.08;;;1.40;;
27265;SDS011;14766;51.380;13.762;2022-07-17T00:45:39;2.00;;;1.35;;
27265;SDS011;14766;51.380;13.762;2022-07-17T00:48:09;1.60;;;1.35;;
27265;SDS011;14766;51.380;13.762;2022-07-17T00:50:38;2.58;;;1.60;;
27265;SDS011;14766;51.380;13.762;2022-07-17T00:53:07;2.33;;;1.50;;
27265;SDS011;14766;51.380;13.762;2022-07-17T00:55:35;3.72;;;1.63;;
27265;SDS011;14766;51.380;13.762;2022-07-17T00:58:10;2.45;;;1.38;;
27265;SDS011;14766;51.380;13.762;2022-07-17T01:00:39;1.80;;;1.30;;
27265;SDS011;14766;51.380;13.762;2022-07-17T01:03:08;2.45;;;1.20;;
27265;SDS011;14766;51.380;13.762;2022-07-17T01:05:36;4.60;;;1.40;;
27265;SDS011;14766;51.380;13.762;2022-07-17T01:08:03;3.17;;;1.75;;
27265;SDS011;14766;51.380;13.762;2022-07-17T01:10:31;3.25;;;1.20;;
27265;SDS011;14766;51.380;13.762;2022-07-17T01:12:59;3.00;;;1.35;;
27265;SDS011;14766;51.380;13.762;2022-07-17T01:15:27;1.83;;;1.38;;
27265;SDS011;14766;51.380;13.762;2022-07-17T01:17:55;2.35;;;1.30;;
27265;SDS011;14766;51.380;13.762;2022-07-17T01:20:22;1.80;;;1.30;;
27265;SDS011;14766;51.380;13.762;2022-07-17T01:22:50;2.92;;;1.77;;
27265;SDS011;14766;51.380;13.762;2022-07-17T01:25:19;2.10;;;1.30;;
27265;SDS011;14766;51.380;13.762;2022-07-17T01:27:48;2.17;;;1.20;;
27265;SDS011;14766;51.380;13.762;2022-07-17T01:30:16;2.63;;;1.42;;
27265;SDS011;14766;51.380;13.762;2022-07-17T01:32:44;3.03;;;1.42;;
27265;SDS011;14766;51.380;13.762;2022-07-17T01:35:12;4.03;;;1.70;;
27265;SDS011;14766;51.380;13.762;2022-07-17T01:37:40;2.28;;;1.33;;
27265;SDS011;14766;51.380;13.762;2022-07-17T01:40:09;2.30;;;1.30;;
27265;SDS011;14766;51.380;13.762;2022-07-17T01:42:48;4.70;;;1.42;;
27265;SDS011;14766;51.380;13.762;2022-07-17T01:45:16;3.37;;;1.50;;
27265;SDS011;14766;51.380;13.762;2022-07-17T01:47:45;2.60;;;1.20;;
27265;SDS011;14766;51.380;13.762;2022-07-17T01:50:13;1.52;;;1.10;;
27265;SDS011;14766;51.380;13.762;2022-07-17T01:52:41;3.58;;;1.50;;
27265;SDS011;14766;51.380;13.762;2022-07-17T01:55:10;2.65;;;1.38;;
27265;SDS011;14766;51.380;13.762;2022-07-17T01:57:40;3.08;;;1.80;;
27265;SDS011;14766;51.380;13.762;2022-07-17T02:00:10;3.65;;;2.30;;
27265;SDS011;14766;51.380;13.762;2022-07-17T02:02:38;3.97;;;2.53;;
27265;SDS011;14766;51.380;13.762;2022-07-17T02:05:06;4.03;;;2.05;;
27265;SDS011;14766;51.380;13.762;2022-07-17T02:07:34;3.83;;;2.20;;
27265;SDS011;14766;51.380;13.762;2022-07-17T02:10:03;3.78;;;1.63;;
27265;SDS011;14766;51.380;13.762;2022-07-17T02:12:30;6.47;;;2.42;;
27265;SDS011;14766;51.380;13.762;2022-07-17T02:14:57;3.85;;;1.80;;
27265;SDS011;14766;51.380;13.762;2022-07-17T02:17:25;3.72;;;1.30;;
27265;SDS011;14766;51.380;13.762;2022-07-17T02:19:52;2.20;;;1.42;;
27265;SDS011;14766;51.380;13.762;2022-07-17T02:22:20;2.38;;;1.10;;
27265;SDS011;14766;51.380;13.762;2022-07-17T02:24:47;4.25;;;1.63;;
27265;SDS011;14766;51.380;13.762;2022-07-17T02:27:14;3.00;;;1.60;;
27265;SDS011;14766;51.380;13.762;2022-07-17T02:29:42;3.72;;;1.50;;
27265;SDS011;14766;51.380;13.762;2022-07-17T02:32:09;2.25;;;1.38;;
27265;SDS011;14766;51.380;13.762;2022-07-17T02:34:36;3.42;;;1.20;;
27265;SDS011;14766;51.380;13.762;2022-07-17T02:37:03;3.30;;;1.63;;
27265;SDS011;14766;51.380;13.762;2022-07-17T02:39:30;3.33;;;1.35;;
27265;SDS011;14766;51.380;13.762;2022-07-17T02:41:58;3.03;;;1.23;;
27265;SDS011;14766;51.380;13.762;2022-07-17T02:44:25;1.23;;;1.05;;
27265;SDS011;14766;51.380;13.762;2022-07-17T02:46:53;2.33;;;1.25;;
27265;SDS011;14766;51.380;13.762;2022-07-17T02:49:21;1.63;;;1.00;;
27265;SDS011;14766;51.380;13.762;2022-07-17T02:51:48;1.63;;;1.00;;
27265;SDS011;14766;51.380;13.762;2022-07-17T02:54:17;2.13;;;1.23;;
27265;SDS011;14766;51.380;13.762;2022-07-17T02:56:44;1.75;;;0.98;;
27265;SDS011;14766;51.380;13.762;2022-07-17T02:59:12;1.42;;;0.80;;
27265;SDS011;14766;51.380;13.762;2022-07-17T03:01:39;2.72;;;0.95;;
27265;SDS011;14766;51.380;13.762;2022-07-17T03:04:06;1.58;;;1.08;;
27265;SDS011;14766;51.380;13.762;2022-07-17T03:06:33;3.70;;;1.58;;
27265;SDS011;14766;51.380;13.762;2022-07-17T03:09:01;1.67;;;0.95;;
27265;SDS011;14766;51.380;13.762;2022-07-17T03:11:28;1.60;;;0.80;;
27265;SDS011;14766;51.380;13.762;2022-07-17T03:13:56;3.38;;;1.15;;
27265;SDS011;14766;51.380;13.762;2022-07-17T03:16:24;1.38;;;0.90;;
27265;SDS011;14766;51.380;13.762;2022-07-17T03:18:51;2.58;;;1.00;;
27265;SDS011;14766;51.380;13.762;2022-07-17T03:21:18;2.13;;;0.77;;
27265;SDS011;14766;51.380;13.762;2022-07-17T03:23:46;2.17;;;0.90;;
27265;SDS011;14766;51.380;13.762;2022-07-17T03:26:13;2.08;;;0.80;;
27265;SDS011;14766;51.380;13.762;2022-07-17T03:28:40;2.30;;;1.13;;
27265;SDS011;14766;51.380;13.762;2022-07-17T03:31:08;4.90;;;0.93;;
27265;SDS011;14766;51.380;13.762;2022-07-17T03:33:35;3.83;;;1.20;;
27265;SDS011;14766;51.380;13.762;2022-07-17T03:36:02;2.45;;;0.90;;
27265;SDS011;14766;51.380;13.762;2022-07-17T03:38:30;2.40;;;1.05;;
27265;SDS011;14766;51.380;13.762;2022-07-17T03:40:58;1.25;;;0.82;;
27265;SDS011;14766;51.380;13.762;2022-07-17T03:43:25;2.70;;;0.95;;
27265;SDS011;14766;51.380;13.762;2022-07-17T03:45:53;2.33;;;1.33;;
27265;SDS011;14766;51.380;13.762;2022-07-17T03:48:20;1.20;;;0.73;;
27265;SDS011;14766;51.380;13.762;2022-07-17T03:50:47;1.33;;;0.80;;
27265;SDS011;14766;51.380;13.762;2022-07-17T03:53:14;1.58;;;0.80;;
27265;SDS011;14766;51.380;13.762;2022-07-17T03:55:41;2.92;;;1.10;;
27265;SDS011;14766;51.380;13.762;2022-07-17T03:58:08;2.33;;;1.30;;
27265;SDS011;14766;51.380;13.762;2022-07-17T04:00:35;2.55;;;1.02;;
27265;SDS011;14766;51.380;13.762;2022-07-17T04:03:03;4.07;;;0.90;;
27265;SDS011;14766;51.380;13.762;2022-07-17T04:05:30;1.48;;;0.70;;
27265;SDS011;14766;51.380;13.762;2022-07-17T04:07:57;2.08;;;0.88;;
27265;SDS011;14766;51.380;13.762;2022-07-17T04:10:24;1.92;;;0.75;;
27265;SDS011;14766;51.380;13.762;2022-07-17T04:12:51;2.55;;;0.90;;
27265;SDS011;14766;51.380;13.762;2022-07-17T04:15:18;3.13;;;1.00;;
27265;SDS011;14766;51.380;13.762;2022-07-17T04:18:05;2.28;;;0.73;;
27265;SDS011;14766;51.380;13.762;2022-07-17T04:20:33;1.75;;;0.85;;
27265;SDS011;14766;51.380;13.762;2022-07-17T04:23:00;1.92;;;0.95;;
27265;SDS011;14766;51.380;13.762;2022-07-17T04:25:27;2.03;;;0.80;;
27265;SDS011;14766;51.380;13.762;2022-07-17T04:27:54;1.73;;;0.85;;
27265;SDS011;14766;51.380;13.762;2022-07-17T04:30:21;1.98;;;0.90;;
27265;SDS011;14766;51.380;13.762;2022-07-17T04:32:48;1.85;;;0.82;;
27265;SDS011;14766;51.380;13.762;2022-07-17T04:35:16;2.17;;;1.23;;
27265;SDS011;14766;51.380;13.762;2022-07-17T04:37:44;2.13;;;1.30;;
27265;SDS011;14766;51.380;13.762;2022-07-17T04:40:11;1.50;;;0.90;;
27265;SDS011;14766;51.380;13.762;2022-07-17T04:42:39;1.33;;;0.82;;
27265;SDS011;14766;51.380;13.762;2022-07-17T04:45:07;2.15;;;0.90;;
27265;SDS011;14766;51.380;13.762;2022-07-17T04:47:34;3.80;;;1.00;;
27265;SDS011;14766;51.380;13.762;2022-07-17T04:50:02;4.10;;;1.30;;
27265;SDS011;14766;51.380;13.762;2022-07-17T04:52:29;2.88;;;0.90;;
27265;SDS011;14766;51.380;13.762;2022-07-17T04:54:57;2.72;;;1.00;;
27265;SDS011;14766;51.380;13.762;2022-07-17T04:57:24;1.83;;;0.90;;
27265;SDS011;14766;51.380;13.762;2022-07-17T04:59:52;5.63;;;1.38;;
27265;SDS011;14766;51.380;13.762;2022-07-17T05:02:19;1.80;;;1.00;;
27265;SDS011;14766;51.380;13.762;2022-07-17T05:04:46;3.10;;;1.05;;
27265;SDS011;14766;51.380;13.762;2022-07-17T05:07:13;5.40;;;1.17;;
27265;SDS011;14766;51.380;13.762;2022-07-17T05:09:40;3.15;;;1.05;;
27265;SDS011;14766;51.380;13.762;2022-07-17T05:12:08;3.17;;;1.00;;
27265;SDS011;14766;51.380;13.762;2022-07-17T05:14:35;1.88;;;0.90;;
27265;SDS011;14766;51.380;13.762;2022-07-17T05:17:02;2.40;;;1.10;;
27265;SDS011;14766;51.380;13.762;2022-07-17T05:19:29;2.72;;;1.02;;
27265;SDS011;14766;51.380;13.762;2022-07-17T05:21:56;2.40;;;1.20;;
27265;SDS011;14766;51.380;13.762;2022-07-17T05:24:23;2.75;;;1.05;;
27265;SDS011;14766;51.380;13.762;2022-07-17T05:26:50;2.53;;;0.90;;
27265;SDS011;14766;51.380;13.762;2022-07-17T05:29:18;1.80;;;0.85;;
27265;SDS011;14766;51.380;13.762;2022-07-17T05:31:45;2.92;;;1.20;;
27265;SDS011;14766;51.380;13.762;2022-07-17T05:34:12;1.98;;;1.00;;
27265;SDS011;14766;51.380;13.762;2022-07-17T05:36:40;2.55;;;1.00;;
27265;SDS011;14766;51.380;13.762;2022-07-17T05:39:07;3.28;;;1.08;;
27265;SDS011;14766;51.380;13.762;2022-07-17T05:41:34;3.38;;;1.02;;
27265;SDS011;14766;51.380;13.762;2022-07-17T05:44:02;1.83;;;0.90;;
27265;SDS011;14766;51.380;13.762;2022-07-17T05:46:29;2.65;;;1.10;;
27265;SDS011;14766;51.380;13.762;2022-07-17T05:48:57;5.13;;;1.65;;
27265;SDS011;14766;51.380;13.762;2022-07-17T05:51:24;3.55;;;1.20;;
27265;SDS011;14766;51.380;13.762;2022-07-17T05:53:51;1.40;;;0.88;;
27265;SDS011;14766;51.380;13.762;2022-07-17T05:56:18;3.38;;;1.00;;
27265;SDS011;14766;51.380;13.762;2022-07-17T05:58:48;1.80;;;1.08;;
27265;SDS011;14766;51.380;13.762;2022-07-17T06:01:15;3.17;;;1.00;;
27265;SDS011;14766;51.380;13.762;2022-07-17T06:03:45;4.07;;;1.08;;
27265;SDS011;14766;51.380;13.762;2022-07-17T06:06:12;2.72;;;1.05;;
27265;SDS011;14766;51.380;13.762;2022-07-17T06:08:39;2.38;;;1.05;;
27265;SDS011;14766;51.380;13.762;2022-07-17T06:11:07;3.22;;;0.90;;
27265;SDS011;14766;51.380;13.762;2022-07-17T06:13:35;3.80;;;1.00;;
27265;SDS011;14766;51.380;13.762;2022-07-17T06:16:02;3.53;;;0.98;;
27265;SDS011;14766;51.380;13.762;2022-07-17T06:18:29;3.30;;;1.10;;
27265;SDS011;14766;51.380;13.762;2022-07-17T06:20:57;2.53;;;0.98;;
27265;SDS011;14766;51.380;13.762;2022-07-17T06:23:24;4.05;;;0.85;;
27265;SDS011;14766;51.380;13.762;2022-07-17T06:25:51;2.50;;;1.00;;
27265;SDS011;14766;51.380;13.762;2022-07-17T06:28:18;4.13;;;1.25;;
27265;SDS011;14766;51.380;13.762;2022-07-17T06:30:45;1.42;;;0.90;;
27265;SDS011;14766;51.380;13.762;2022-07-17T06:33:12;2.33;;;0.95;;
27265;SDS011;14766;51.380;13.762;2022-07-17T06:35:39;5.90;;;0.90;;
27265;SDS011;14766;51.380;13.762;2022-07-17T06:38:11;1.92;;;1.00;;
27265;SDS011;14766;51.380;13.762;2022-07-17T06:40:38;3.38;;;1.13;;
27265;SDS011;14766;51.380;13.762;2022-07-17T06:43:05;3.65;;;1.00;;
27265;SDS011;14766;51.380;13.762;2022-07-17T06:45:33;3.28;;;1.08;;
27265;SDS011;14766;51.380;13.762;2022-07-17T06:48:01;2.08;;;1.02;;
27265;SDS011;14766;51.380;13.762;2022-07-17T06:50:28;3.22;;;0.90;;
27265;SDS011;14766;51.380;13.762;2022-07-17T06:52:55;4.53;;;1.48;;
27265;SDS011;14766;51.380;13.762;2022-07-17T06:55:22;3.08;;;1.10;;
27265;SDS011;14766;51.380;13.762;2022-07-17T06:57:49;3.70;;;1.20;;
27265;SDS011;14766;51.380;13.762;2022-07-17T07:00:16;1.58;;;1.00;;
27265;SDS011;14766;51.380;13.762;2022-07-17T07:02:44;2.67;;;1.08;;
27265;SDS011;14766;51.380;13.762;2022-07-17T07:05:12;3.55;;;1.00;;
27265;SDS011;14766;51.380;13.762;2022-07-17T07:07:40;3.20;;;1.08;;
27265;SDS011;14766;51.380;13.762;2022-07-17T07:10:07;5.18;;;1.13;;
27265;SDS011;14766;51.380;13.762;2022-07-17T07:12:35;4.95;;;1.00;;
27265;SDS011;14766;51.380;13.762;2022-07-17T07:15:02;3.95;;;1.10;;
27265;SDS011;14766;51.380;13.762;2022-07-17T07:17:37;1.58;;;0.93;;
27265;SDS011;14766;51.380;13.762;2022-07-17T07:20:04;2.65;;;1.00;;
27265;SDS011;14766;51.380;13.762;2022-07-17T07:22:32;2.20;;;1.10;;
27265;SDS011;14766;51.380;13.762;2022-07-17T07:25:00;2.58;;;1.08;;
27265;SDS011;14766;51.380;13.762;2022-07-17T07:27:28;2.53;;;0.98;;
27265;SDS011;14766;51.380;13.762;2022-07-17T07:29:55;3.38;;;1.25;;
27265;SDS011;14766;51.380;13.762;2022-07-17T07:32:22;5.28;;;1.10;;
27265;SDS011;14766;51.380;13.762;2022-07-17T07:34:49;5.07;;;1.20;;
27265;SDS011;14766;51.380;13.762;2022-07-17T07:37:16;2.63;;;0.98;;
27265;SDS011;14766;51.380;13.762;2022-07-17T07:39:43;2.50;;;0.88;;
27265;SDS011;14766;51.380;13.762;2022-07-17T07:42:10;2.00;;;0.98;;
27265;SDS011;14766;51.380;13.762;2022-07-17T07:44:40;1.95;;;1.00;;
27265;SDS011;14766;51.380;13.762;2022-07-17T07:47:07;2.78;;;1.15;;
27265;SDS011;14766;51.380;13.762;2022-07-17T07:49:34;3.25;;;1.10;;
27265;SDS011;14766;51.380;13.762;2022-07-17T07:52:05;2.67;;;1.02;;
27265;SDS011;14766;51.380;13.762;2022-07-17T07:54:33;2.63;;;0.93;;
27265;SDS011;14766;51.380;13.762;2022-07-17T07:57:01;4.60;;;1.23;;
27265;SDS011;14766;51.380;13.762;2022-07-17T07:59:32;2.80;;;1.15;;
27265;SDS011;14766;51.380;13.762;2022-07-17T08:02:00;3.03;;;0.80;;
27265;SDS011;14766;51.380;13.762;2022-07-17T08:04:28;1.60;;;0.82;;
27265;SDS011;14766;51.380;13.762;2022-07-17T08:06:55;2.33;;;1.15;;
27265;SDS011;14766;51.380;13.762;2022-07-17T08:09:22;2.22;;;0.98;;
27265;SDS011;14766;51.380;13.762;2022-07-17T08:11:50;2.00;;;0.70;;
27265;SDS011;14766;51.380;13.762;2022-07-17T08:14:17;3.15;;;1.05;;
27265;SDS011;14766;51.380;13.762;2022-07-17T08:16:44;3.83;;;0.90;;
27265;SDS011;14766;51.380;13.762;2022-07-17T08:19:12;2.65;;;0.90;;
27265;SDS011;14766;51.380;13.762;2022-07-17T08:21:43;1.90;;;0.93;;
27265;SDS011;14766;51.380;13.762;2022-07-17T08:24:15;3.92;;;1.08;;
27265;SDS011;14766;51.380;13.762;2022-07-17T08:26:43;2.72;;;1.00;;
27265;SDS011;14766;51.380;13.762;2022-07-17T08:29:11;2.33;;;1.00;;
27265;SDS011;14766;51.380;13.762;2022-07-17T08:31:38;2.53;;;1.05;;
27265;SDS011;14766;51.380;13.762;2022-07-17T08:34:05;2.88;;;1.05;;
27265;SDS011;14766;51.380;13.762;2022-07-17T08:36:33;3.10;;;1.00;;
27265;SDS011;14766;51.380;13.762;2022-07-17T08:39:00;2.25;;;0.90;;
27265;SDS011;14766;51.380;13.762;2022-07-17T08:41:28;2.05;;;0.90;;
27265;SDS011;14766;51.380;13.762;2022-07-17T08:43:56;2.70;;;0.85;;
27265;SDS011;14766;51.380;13.762;2022-07-17T08:46:23;2.25;;;0.90;;
27265;SDS011;14766;51.380;13.762;2022-07-17T08:48:53;5.85;;;1.20;;
27265;SDS011;14766;51.380;13.762;2022-07-17T08:51:25;2.88;;;1.05;;
27265;SDS011;14766;51.380;13.762;2022-07-17T08:53:55;4.00;;;1.10;;
27265;SDS011;14766;51.380;13.762;2022-07-17T08:56:24;4.93;;;1.10;;
27265;SDS011;14766;51.380;13.762;2022-07-17T08:58:52;4.88;;;1.10;;
27265;SDS011;14766;51.380;13.762;2022-07-17T09:01:22;2.22;;;0.90;;
27265;SDS011;14766;51.380;13.762;2022-07-17T09:03:55;3.75;;;1.20;;
27265;SDS011;14766;51.380;13.762;2022-07-17T09:06:27;2.97;;;1.02;;
27265;SDS011;14766;51.380;13.762;2022-07-17T09:11:29;2.05;;;0.98;;
27265;SDS011;14766;51.380;13.762;2022-07-17T09:14:07;2.35;;;1.00;;
27265;SDS011;14766;51.380;13.762;2022-07-17T09:16:35;2.78;;;1.13;;
27265;SDS011;14766;51.380;13.762;2022-07-17T09:19:03;2.35;;;1.10;;
27265;SDS011;14766;51.380;13.762;2022-07-17T09:21:30;4.90;;;1.40;;
27265;SDS011;14766;51.380;13.762;2022-07-17T09:24:03;2.95;;;1.10;;
27265;SDS011;14766;51.380;13.762;2022-07-17T09:26:35;4.25;;;1.23;;
27265;SDS011;14766;51.380;13.762;2022-07-17T09:29:09;2.47;;;1.00;;
27265;SDS011;14766;51.380;13.762;2022-07-17T09:31:38;1.60;;;0.80;;
27265;SDS011;14766;51.380;13.762;2022-07-17T09:34:15;2.90;;;1.00;;
27265;SDS011;14766;51.380;13.762;2022-07-17T09:36:44;4.15;;;1.27;;
27265;SDS011;14766;51.380;13.762;2022-07-17T09:39:11;6.47;;;1.17;;
27265;SDS011;14766;51.380;13.762;2022-07-17T09:41:38;2.25;;;0.90;;
27265;SDS011;14766;51.380;13.762;2022-07-17T09:44:06;1.65;;;0.80;;
27265;SDS011;14766;51.380;13.762;2022-07-17T09:46:34;3.50;;;1.25;;
27265;SDS011;14766;51.380;13.762;2022-07-17T09:49:06;2.28;;;0.88;;
27265;SDS011;14766;51.380;13.762;2022-07-17T09:51:36;3.30;;;1.42;;
27265;SDS011;14766;51.380;13.762;2022-07-17T09:54:06;3.63;;;1.00;;
27265;SDS011;14766;51.380;13.762;2022-07-17T09:56:36;2.65;;;1.10;;
27265;SDS011;14766;51.380;13.762;2022-07-17T09:59:07;3.15;;;1.27;;
27265;SDS011;14766;51.380;13.762;2022-07-17T10:01:40;2.33;;;1.10;;
27265;SDS011;14766;51.380;13.762;2022-07-17T10:04:11;2.85;;;1.20;;
27265;SDS011;14766;51.380;13.762;2022-07-17T10:06:38;2.70;;;1.15;;
27265;SDS011;14766;51.380;13.762;2022-07-17T10:09:06;4.57;;;1.20;;
27265;SDS011;14766;51.380;13.762;2022-07-17T10:11:33;4.10;;;1.08;;
27265;SDS011;14766;51.380;13.762;2022-07-17T10:14:14;5.60;;;1.02;;
27265;SDS011;14766;51.380;13.762;2022-07-17T10:16:43;2.80;;;1.00;;
27265;SDS011;14766;51.380;13.762;2022-07-17T10:21:54;3.58;;;0.90;;
27265;SDS011;14766;51.380;13.762;2022-07-17T10:24:28;2.63;;;0.93;;
27265;SDS011;14766;51.380;13.762;2022-07-17T10:26:58;3.38;;;1.20;;
27265;SDS011;14766;51.380;13.762;2022-07-17T10:32:17;1.40;;;1.00;;
27265;SDS011;14766;51.380;13.762;2022-07-17T10:34:46;3.07;;;1.17;;
27265;SDS011;14766;51.380;13.762;2022-07-17T10:37:15;2.03;;;0.98;;
27265;SDS011;14766;51.380;13.762;2022-07-17T10:39:58;2.90;;;1.20;;
27265;SDS011;14766;51.380;13.762;2022-07-17T10:50:22;2.25;;;0.90;;
27265;SDS011;14766;51.380;13.762;2022-07-17T10:53:14;3.60;;;1.23;;
27265;SDS011;14766;51.380;13.762;2022-07-17T10:56:00;2.35;;;0.90;;
27265;SDS011;14766;51.380;13.762;2022-07-17T10:58:32;3.42;;;1.33;;
27265;SDS011;14766;51.380;13.762;2022-07-17T11:01:14;2.63;;;1.00;;
27265;SDS011;14766;51.380;13.762;2022-07-17T11:03:52;2.05;;;1.10;;
27265;SDS011;14766;51.380;13.762;2022-07-17T11:06:26;1.88;;;0.82;;
27265;SDS011;14766;51.380;13.762;2022-07-17T11:09:08;2.70;;;0.90;;
27265;SDS011;14766;51.380;13.762;2022-07-17T11:11:47;2.30;;;0.80;;
27265;SDS011;14766;51.380;13.762;2022-07-17T11:14:18;1.55;;;0.80;;
27265;SDS011;14766;51.380;13.762;2022-07-17T11:16:59;2.13;;;0.90;;
27265;SDS011;14766;51.380;13.762;2022-07-17T11:19:32;3.22;;;1.08;;
27265;SDS011;14766;51.380;13.762;2022-07-17T11:22:06;2.08;;;0.73;;
27265;SDS011;14766;51.380;13.762;2022-07-17T11:24:43;2.65;;;1.17;;
27265;SDS011;14766;51.380;13.762;2022-07-17T11:29:51;3.03;;;1.13;;
27265;SDS011;14766;51.380;13.762;2022-07-17T11:32:21;2.60;;;1.20;;
27265;SDS011;14766;51.380;13.762;2022-07-17T11:34:49;5.03;;;1.30;;
27265;SDS011;14766;51.380;13.762;2022-07-17T11:37:17;2.42;;;1.08;;
27265;SDS011;14766;51.380;13.762;2022-07-17T11:39:48;3.58;;;1.10;;
27265;SDS011;14766;51.380;13.762;2022-07-17T11:42:20;2.45;;;1.30;;
27265;SDS011;14766;51.380;13.762;2022-07-17T11:44:49;3.75;;;1.20;;
27265;SDS011;14766;51.380;13.762;2022-07-17T11:47:22;2.00;;;1.00;;
27265;SDS011;14766;51.380;13.762;2022-07-17T11:50:08;3.03;;;1.00;;
27265;SDS011;14766;51.380;13.762;2022-07-17T11:52:41;2.78;;;0.93;;
27265;SDS011;14766;51.380;13.762;2022-07-17T11:55:15;3.35;;;1.02;;
27265;SDS011;14766;51.380;13.762;2022-07-17T11:57:45;2.58;;;1.30;;
27265;SDS011;14766;51.380;13.762;2022-07-17T12:00:19;1.98;;;1.00;;
27265;SDS011;14766;51.380;13.762;2022-07-17T12:02:57;2.88;;;1.20;;
27265;SDS011;14766;51.380;13.762;2022-07-17T12:05:33;2.07;;;0.90;;
27265;SDS011;14766;51.380;13.762;2022-07-17T12:08:01;2.38;;;1.10;;
27265;SDS011;14766;51.380;13.762;2022-07-17T12:10:30;1.33;;;0.90;;
27265;SDS011;14766;51.380;13.762;2022-07-17T12:13:03;3.95;;;1.80;;
27265;SDS011;14766;51.380;13.762;2022-07-17T12:15:35;3.95;;;1.23;;
27265;SDS011;14766;51.380;13.762;2022-07-17T12:18:24;1.45;;;0.90;;
27265;SDS011;14766;51.380;13.762;2022-07-17T12:20:56;1.42;;;0.90;;
27265;SDS011;14766;51.380;13.762;2022-07-17T12:26:33;1.45;;;0.75;;
27265;SDS011;14766;51.380;13.762;2022-07-17T12:31:27;2.67;;;0.88;;
27265;SDS011;14766;51.380;13.762;2022-07-17T12:33:56;2.33;;;1.15;;
27265;SDS011;14766;51.380;13.762;2022-07-17T12:36:23;2.13;;;0.95;;
27265;SDS011;14766;51.380;13.762;2022-07-17T12:38:51;1.38;;;0.90;;
27265;SDS011;14766;51.380;13.762;2022-07-17T12:41:18;2.10;;;0.90;;
27265;SDS011;14766;51.380;13.762;2022-07-17T12:43:46;2.90;;;1.05;;
27265;SDS011;14766;51.380;13.762;2022-07-17T12:46:13;3.75;;;0.70;;
27265;SDS011;14766;51.380;13.762;2022-07-17T12:48:43;2.67;;;1.00;;
27265;SDS011;14766;51.380;13.762;2022-07-17T12:51:12;3.28;;;1.00;;
27265;SDS011;14766;51.380;13.762;2022-07-17T12:53:40;1.30;;;0.75;;
27265;SDS011;14766;51.380;13.762;2022-07-17T12:56:09;1.38;;;0.88;;
27265;SDS011;14766;51.380;13.762;2022-07-17T12:58:44;3.65;;;1.05;;
27265;SDS011;14766;51.380;13.762;2022-07-17T13:01:18;3.95;;;0.88;;
27265;SDS011;14766;51.380;13.762;2022-07-17T13:03:46;1.95;;;0.90;;
27265;SDS011;14766;51.380;13.762;2022-07-17T13:06:13;2.28;;;0.80;;
27265;SDS011;14766;51.380;13.762;2022-07-17T13:08:41;2.83;;;1.00;;
27265;SDS011;14766;51.380;13.762;2022-07-17T13:11:11;1.90;;;0.63;;
27265;SDS011;14766;51.380;13.762;2022-07-17T13:13:38;1.40;;;0.60;;
27265;SDS011;14766;51.380;13.762;2022-07-17T13:16:09;2.03;;;0.70;;
27265;SDS011;14766;51.380;13.762;2022-07-17T13:18:38;1.88;;;0.82;;
27265;SDS011;14766;51.380;13.762;2022-07-17T13:21:06;1.65;;;0.73;;
27265;SDS011;14766;51.380;13.762;2022-07-17T13:23:34;4.40;;;1.05;;
27265;SDS011;14766;51.380;13.762;2022-07-17T13:26:01;1.75;;;0.85;;
27265;SDS011;14766;51.380;13.762;2022-07-17T13:28:29;3.22;;;1.13;;
27265;SDS011;14766;51.380;13.762;2022-07-17T13:30:56;2.78;;;1.40;;
27265;SDS011;14766;51.380;13.762;2022-07-17T13:33:24;1.50;;;0.80;;
27265;SDS011;14766;51.380;13.762;2022-07-17T13:35:52;2.03;;;1.00;;
27265;SDS011;14766;51.380;13.762;2022-07-17T13:38:20;2.13;;;0.90;;
27265;SDS011;14766;51.380;13.762;2022-07-17T13:40:51;1.77;;;1.00;;
27265;SDS011;14766;51.380;13.762;2022-07-17T13:43:18;1.17;;;0.63;;
27265;SDS011;14766;51.380;13.762;2022-07-17T13:45:45;2.20;;;1.05;;
27265;SDS011;14766;51.380;13.762;2022-07-17T13:48:12;1.42;;;0.93;;
27265;SDS011;14766;51.380;13.762;2022-07-17T13:50:41;2.03;;;1.00;;
27265;SDS011;14766;51.380;13.762;2022-07-17T13:53:08;4.63;;;1.13;;
27265;SDS011;14766;51.380;13.762;2022-07-17T13:55:38;4.72;;;1.05;;
27265;SDS011;14766;51.380;13.762;2022-07-17T13:58:10;1.27;;;0.73;;
27265;SDS011;14766;51.380;13.762;2022-07-17T14:00:37;1.23;;;0.73;;
27265;SDS011;14766;51.380;13.762;2022-07-17T14:03:04;2.03;;;0.88;;
27265;SDS011;14766;51.380;13.762;2022-07-17T14:05:31;2.55;;;0.85;;
27265;SDS011;14766;51.380;13.762;2022-07-17T14:07:58;3.20;;;1.00;;
27265;SDS011;14766;51.380;13.762;2022-07-17T14:10:26;2.38;;;1.00;;
27265;SDS011;14766;51.380;13.762;2022-07-17T14:12:53;2.38;;;0.90;;
27265;SDS011;14766;51.380;13.762;2022-07-17T14:15:20;1.70;;;0.80;;
27265;SDS011;14766;51.380;13.762;2022-07-17T14:17:48;3.53;;;0.80;;
27265;SDS011;14766;51.380;13.762;2022-07-17T14:20:15;2.60;;;1.10;;
27265;SDS011;14766;51.380;13.762;2022-07-17T14:22:43;2.40;;;0.80;;
27265;SDS011;14766;51.380;13.762;2022-07-17T14:25:11;1.50;;;0.90;;
27265;SDS011;14766;51.380;13.762;2022-07-17T14:27:38;1.02;;;0.80;;
27265;SDS011;14766;51.380;13.762;2022-07-17T14:30:06;1.67;;;0.82;;
27265;SDS011;14766;51.380;13.762;2022-07-17T14:32:33;1.55;;;0.70;;
27265;SDS011;14766;51.380;13.762;2022-07-17T14:35:00;2.95;;;1.00;;
27265;SDS011;14766;51.380;13.762;2022-07-17T14:37:28;2.53;;;1.10;;
27265;SDS011;14766;51.380;13.762;2022-07-17T14:39:55;4.30;;;1.15;;
27265;SDS011;14766;51.380;13.762;2022-07-17T14:42:23;2.15;;;0.98;;
27265;SDS011;14766;51.380;13.762;2022-07-17T14:44:50;2.55;;;0.93;;
27265;SDS011;14766;51.380;13.762;2022-07-17T14:47:17;2.63;;;1.02;;
27265;SDS011;14766;51.380;13.762;2022-07-17T14:49:45;2.33;;;1.10;;
27265;SDS011;14766;51.380;13.762;2022-07-17T14:52:12;0.85;;;0.70;;
27265;SDS011;14766;51.380;13.762;2022-07-17T14:54:40;2.10;;;0.80;;
27265;SDS011;14766;51.380;13.762;2022-07-17T14:57:07;1.63;;;0.88;;
27265;SDS011;14766;51.380;13.762;2022-07-17T14:59:34;1.15;;;0.73;;
27265;SDS011;14766;51.380;13.762;2022-07-17T15:02:05;1.00;;;0.70;;
27265;SDS011;14766;51.380;13.762;2022-07-17T15:04:33;1.45;;;0.60;;
27265;SDS011;14766;51.380;13.762;2022-07-17T15:07:03;1.48;;;0.63;;